Time;durP1;ratioP1;P1;durP2;ratioP2;P2;SDS_P1;SDS_P2;PMS_P1;PMS_P2;Temp;Humidity;BMP_temperature;BMP_pressure;BME280_temperature;BME280_humidity;BME280_pressure;Samples;Min_cycle;Max_cycle;Signal;HPM_P1;HPM_P2
2021/09/09 00:00:15;;;;;;;11.27;7.35;;;14.70;99.90;;;13.33;91.43;100794.88;2568684;30;137429;-40
2021/09/09 00:02:42;;;;;;;11.27;7.53;;;14.70;99.90;;;13.30;91.63;100793.47;2568085;30;138921;-41
2021/09/09 00:05:14;;;;;;;12.23;8.23;;;14.70;99.90;;;13.31;91.35;100788.78;2567398;30;137389;-39
2021/09/09 00:07:42;;;;;;;11.43;8.30;;;14.70;99.90;;;13.29;91.45;100789.03;2567670;30;137350;-40
2021/09/09 00:10:11;;;;;;;12.23;7.95;;;14.60;99.90;;;13.21;91.79;100778.38;2568766;30;136758;-42
2021/09/09 00:12:40;;;;;;;11.73;7.70;;;14.60;99.90;;;13.23;92.02;100784.47;2567662;30;138341;-39
2021/09/09 00:15:11;;;;;;;11.75;8.18;;;14.60;99.90;;;13.21;92.00;100789.34;2567447;30;137544;-39
2021/09/09 00:17:40;;;;;;;10.93;7.47;;;14.60;99.90;;;13.22;91.79;100782.81;2568332;30;137174;-39
2021/09/09 00:20:13;;;;;;;12.50;8.15;;;14.60;99.90;;;13.20;92.50;100780.31;2566882;30;137388;-41
2021/09/09 00:22:42;;;;;;;12.30;7.55;;;14.60;99.90;;;13.19;92.17;100775.03;2567861;30;138436;-39
2021/09/09 00:25:11;;;;;;;11.48;7.88;;;14.50;99.90;;;13.15;92.29;100774.69;2567172;30;137480;-39
2021/09/09 00:27:40;;;;;;;14.85;8.25;;;14.50;99.90;;;13.14;92.18;100766.69;2566724;30;138924;-39
2021/09/09 00:30:10;;;;;;;12.88;7.47;;;14.50;99.90;;;13.12;92.07;100764.19;2568084;30;137387;-39
2021/09/09 00:32:39;;;;;;;11.32;7.10;;;14.50;99.90;;;13.09;92.08;100764.63;2567487;30;138895;-39
2021/09/09 00:35:09;;;;;;;13.00;7.50;;;14.50;99.90;;;13.07;91.84;100761.28;2567424;30;137252;-39
2021/09/09 00:37:37;;;;;;;11.80;7.38;;;14.50;99.90;;;13.02;91.91;100756.53;2567974;30;137844;-39
2021/09/09 00:40:06;;;;;;;11.77;7.90;;;14.40;99.90;;;13.00;91.67;100746.88;2567979;30;136863;-39
2021/09/09 00:42:34;;;;;;;11.57;7.75;;;14.40;99.90;;;13.01;92.13;100745.78;2567188;30;139091;-39
2021/09/09 00:45:02;;;;;;;11.63;7.47;;;14.40;99.90;;;12.98;92.58;100744.34;2567011;30;137365;-42
2021/09/09 00:47:32;;;;;;;12.25;7.65;;;14.40;99.90;;;12.95;92.34;100739.31;2568826;30;137374;-39
2021/09/09 00:50:00;;;;;;;12.23;7.68;;;14.30;99.90;;;12.91;92.29;100741.72;2569747;30;137585;-39
2021/09/09 00:52:27;;;;;;;9.95;6.85;;;14.30;99.90;;;12.89;92.18;100737.53;2570060;30;138299;-41
2021/09/09 00:54:55;;;;;;;9.45;7.03;;;14.30;99.90;;;12.87;92.10;100728.69;2570044;30;138643;-40
2021/09/09 00:57:24;;;;;;;9.88;7.00;;;14.20;99.90;;;12.85;92.05;100731.66;2568119;30;138896;-41
2021/09/09 00:59:53;;;;;;;11.55;6.93;;;14.20;99.90;;;12.84;92.32;100730.00;2568657;30;138204;-40
2021/09/09 01:02:20;;;;;;;10.43;6.82;;;14.20;99.90;;;12.84;92.20;100726.44;2568836;30;137649;-40
2021/09/09 01:04:49;;;;;;;;;;;14.20;99.90;;;12.83;92.31;100722.84;2569957;30;136764;-40
2021/09/09 01:07:17;;;;;;;11.85;7.13;;;14.20;99.90;;;12.79;92.63;100719.75;2569693;30;137830;-40
2021/09/09 01:09:45;;;;;;;12.15;7.50;;;14.20;99.90;;;12.80;92.57;100724.16;2570699;30;137528;-40
2021/09/09 01:12:12;;;;;;;12.50;8.02;;;14.20;99.90;;;12.80;92.69;100721.41;2569333;30;138361;-40
2021/09/09 01:14:40;;;;;;;11.55;7.43;;;14.10;99.90;;;12.80;92.83;100724.16;2568759;30;137411;-41
2021/09/09 01:17:08;;;;;;;10.20;7.32;;;14.20;99.90;;;12.77;92.68;100723.75;2568359;30;139236;-41
2021/09/09 01:19:36;;;;;;;11.55;7.47;;;14.10;99.90;;;12.77;92.38;100718.28;2569487;30;137521;-40
2021/09/09 01:22:04;;;;;;;10.70;7.00;;;14.20;99.90;;;12.71;93.10;100703.63;2569665;30;138315;-40
2021/09/09 01:24:33;;;;;;;12.50;8.40;;;14.10;99.90;;;12.76;93.67;100702.94;2567936;30;137439;-40
2021/09/09 01:27:05;;;;;;;11.38;7.93;;;14.10;99.90;;;12.77;93.96;100702.72;2566896;30;138419;-40
2021/09/09 01:29:40;;;;;;;12.02;7.72;;;14.10;99.90;;;12.77;93.76;100702.72;2566560;30;137569;-40
2021/09/09 01:32:09;;;;;;;11.95;7.93;;;14.10;99.90;;;12.76;93.82;100701.03;2568495;30;139133;-40
2021/09/09 01:34:37;;;;;;;10.95;8.10;;;14.10;99.90;;;12.75;93.41;100698.53;2571091;30;138416;-40
2021/09/09 01:37:06;;;;;;;11.48;7.57;;;14.10;99.90;;;12.74;93.56;100694.13;2566964;30;139155;-40
2021/09/09 01:39:33;;;;;;;10.85;7.55;;;14.10;99.90;;;12.72;93.79;100702.53;2568638;30;137004;-40
2021/09/09 01:42:01;;;;;;;11.57;7.55;;;14.10;99.90;;;12.77;93.89;100696.38;2567891;30;137889;-40
2021/09/09 01:44:30;;;;;;;10.20;7.55;;;14.10;99.90;;;12.77;93.79;100697.25;2569511;30;137018;-40
2021/09/09 01:46:58;;;;;;;11.77;7.72;;;14.10;99.90;;;12.83;94.39;100702.84;2568448;30;138274;-40
2021/09/09 01:49:27;;;;;;;11.32;7.47;;;14.10;99.90;;;12.86;94.42;100696.91;2569662;30;137636;-40
2021/09/09 01:51:55;;;;;;;10.40;6.95;;;14.20;99.90;;;12.87;94.21;100698.59;2568029;30;139193;-40
2021/09/09 01:54:23;;;;;;;;;;;14.20;99.90;;;12.87;93.92;100690.38;2567847;30;138465;-40
2021/09/09 01:56:51;;;;;;;10.63;7.43;;;14.20;99.90;;;12.85;93.90;100687.03;2568282;30;137160;-40
2021/09/09 01:59:19;;;;;;;10.50;7.20;;;14.20;99.90;;;12.88;94.13;100684.69;2568918;30;136634;-41
2021/09/09 02:01:46;;;;;;;12.27;7.53;;;14.20;99.90;;;12.90;93.94;100678.94;2568380;30;137480;-40
2021/09/09 02:04:14;;;;;;;12.00;6.95;;;14.20;99.90;;;12.93;93.54;100679.34;2565519;30;138289;-40
2021/09/09 02:06:41;;;;;;;11.73;7.28;;;14.30;99.90;;;12.95;93.51;100676.34;2569055;30;138395;-40
2021/09/09 02:09:09;;;;;;;13.55;8.45;;;14.30;99.90;;;12.95;93.41;100670.88;2568622;30;138760;-40
2021/09/09 02:11:37;;;;;;;10.02;6.82;;;14.30;99.90;;;12.94;93.38;100669.19;2569170;30;138282;-40
2021/09/09 02:14:04;;;;;;;9.63;6.88;;;14.30;99.90;;;12.98;92.90;100678.63;2567750;30;137671;-40
2021/09/09 02:16:32;;;;;;;11.60;7.28;;;14.30;99.90;;;13.00;93.35;100678.41;2571090;30;136958;-41
2021/09/09 02:19:00;;;;;;;10.52;7.10;;;14.30;99.90;;;13.02;93.40;100674.38;2566187;30;137592;-40
2021/09/09 02:21:27;;;;;;;11.43;7.75;;;14.40;99.90;;;13.03;93.07;100678.78;2568364;30;137581;-40
2021/09/09 02:23:55;;;;;;;10.32;6.75;;;14.40;99.90;;;13.04;92.64;100671.38;2569247;30;137565;-40
2021/09/09 02:26:22;;;;;;;10.95;7.00;;;14.40;99.90;;;13.06;92.79;100677.47;2569718;30;138527;-40
2021/09/09 02:28:50;;;;;;;11.20;6.80;;;14.40;99.90;;;13.08;92.90;100680.81;2567390;30;137315;-40
2021/09/09 02:31:17;;;;;;;10.82;7.55;;;14.40;99.90;;;13.04;92.75;100669.50;2569059;30;138304;-40
2021/09/09 02:33:45;;;;;;;11.02;7.18;;;14.40;99.90;;;13.06;92.99;100669.25;2568773;30;137238;-40
2021/09/09 02:36:12;;;;;;;11.00;7.03;;;14.40;99.90;;;13.08;92.91;100670.69;2568876;30;138544;-40
2021/09/09 02:38:39;;;;;;;10.18;6.93;;;14.40;99.90;;;13.08;92.84;100658.91;2568102;30;138057;-42
2021/09/09 02:41:07;;;;;;;10.43;7.38;;;14.40;99.90;;;13.07;92.57;100663.56;2571137;30;137316;-40
2021/09/09 02:43:35;;;;;;;11.02;7.40;;;14.40;99.90;;;13.06;92.42;100669.25;2569059;30;137469;-40
2021/09/09 02:46:02;;;;;;;9.60;6.45;;;14.40;99.90;;;13.05;92.32;100670.31;2569664;30;136919;-40
2021/09/09 02:48:30;;;;;;;10.32;6.60;;;14.40;99.90;;;13.03;92.88;100667.81;2569701;30;137623;-40
2021/09/09 02:50:58;;;;;;;9.95;7.25;;;14.40;99.90;;;13.02;93.24;100659.84;2569752;30;139345;-40
2021/09/09 02:53:25;;;;;;;10.75;7.18;;;14.30;99.90;;;13.01;93.48;100667.22;2569341;30;138015;-40
2021/09/09 02:55:53;;;;;;;10.60;6.57;;;14.40;99.90;;;12.99;93.18;100658.38;2568789;30;137465;-40
2021/09/09 02:58:20;;;;;;;10.15;6.80;;;14.30;99.90;;;12.98;93.29;100656.72;2568178;30;137389;-40
2021/09/09 03:00:48;;;;;;;10.45;7.03;;;14.30;99.90;;;13.00;93.74;100668.31;2570607;30;138177;-41
2021/09/09 03:03:16;;;;;;;10.10;6.80;;;14.30;99.90;;;12.98;93.74;100662.19;2569054;30;138468;-40
2021/09/09 03:05:43;;;;;;;;;;;14.30;99.90;;;12.99;93.90;100655.66;2569308;30;139068;-40
2021/09/09 03:08:11;;;;;;;9.80;6.97;;;14.30;99.90;;;12.99;93.66;100660.31;2569064;30;138438;-41
2021/09/09 03:10:38;;;;;;;9.00;6.60;;;14.30;99.90;;;12.95;93.30;100651.72;2570196;30;137704;-40
2021/09/09 03:13:06;;;;;;;10.52;6.93;;;14.30;99.90;;;12.97;93.50;100648.75;2570206;30;136979;-40
2021/09/09 03:15:34;;;;;;;10.40;6.13;;;14.30;99.90;;;12.94;93.86;100656.38;2571188;30;138279;-40
2021/09/09 03:18:01;;;;;;;11.63;7.10;;;14.30;99.90;;;12.92;93.75;100653.03;2569384;30;138287;-40
2021/09/09 03:20:29;;;;;;;9.40;6.88;;;14.30;99.90;;;12.89;93.79;100650.75;2571571;30;138885;-40
2021/09/09 03:22:57;;;;;;;10.68;7.35;;;14.20;99.90;;;12.92;93.91;100654.91;2566950;30;137427;-40
2021/09/09 03:25:24;;;;;;;7.53;5.97;;;14.30;99.90;;;12.90;93.84;100641.47;2568083;30;139098;-40
2021/09/09 03:27:52;;;;;;;8.45;6.22;;;14.30;99.90;;;12.88;93.90;100642.75;2568474;30;137334;-40
2021/09/09 03:30:20;;;;;;;10.93;7.30;;;14.30;99.90;;;12.87;94.11;100646.56;2569484;30;137491;-40
2021/09/09 03:32:47;;;;;;;10.07;6.72;;;14.20;99.90;;;12.86;93.98;100642.16;2568275;30;137042;-40
2021/09/09 03:35:15;;;;;;;10.10;7.00;;;14.20;99.90;;;12.84;93.28;100636.09;2569793;30;138253;-40
2021/09/09 03:37:42;;;;;;;10.18;6.82;;;14.20;99.90;;;12.82;93.44;100654.66;2568084;30;137324;-40
2021/09/09 03:40:12;;;;;;;9.65;6.15;;;14.20;99.90;;;12.79;93.29;100645.84;2570238;30;137405;-41
2021/09/09 03:42:39;;;;;;;10.07;6.72;;;14.10;99.90;;;12.77;93.22;100647.13;2569719;30;136786;-40
2021/09/09 03:45:07;;;;;;;10.65;7.25;;;14.10;99.90;;;12.74;93.28;100651.16;2566124;30;138433;-40
2021/09/09 03:47:35;;;;;;;10.90;6.90;;;14.10;99.90;;;12.74;93.39;100653.91;2567753;30;137471;-40
2021/09/09 03:50:03;;;;;;;10.35;6.85;;;14.10;99.90;;;12.76;93.62;100649.03;2570347;30;138305;-41
2021/09/09 03:52:31;;;;;;;10.68;7.22;;;14.10;99.90;;;12.82;93.58;100660.13;2569344;30;136764;-41
2021/09/09 03:54:59;;;;;;;10.05;7.63;;;14.10;99.90;;;12.83;93.33;100651.66;2568628;30;137795;-40
2021/09/09 03:57:26;;;;;;;10.07;7.00;;;14.20;99.90;;;12.85;93.01;100655.00;2570898;30;137437;-40
2021/09/09 03:59:54;;;;;;;9.63;6.60;;;14.20;99.90;;;12.86;93.38;100656.66;2568448;30;138236;-40
2021/09/09 04:02:21;;;;;;;10.95;7.30;;;14.20;99.90;;;12.84;93.28;100668.94;2568644;30;137226;-40
2021/09/09 04:04:49;;;;;;;12.02;7.03;;;14.20;99.90;;;12.82;93.23;100660.13;2568995;30;137428;-40
2021/09/09 04:07:17;;;;;;;11.05;6.80;;;14.20;99.90;;;12.79;93.78;100651.31;2567806;30;137294;-40
2021/09/09 04:09:44;;;;;;;11.57;6.90;;;14.10;99.90;;;12.77;93.78;100650.72;2569516;30;139257;-40
2021/09/09 04:12:12;;;;;;;10.18;6.63;;;14.10;99.90;;;12.77;93.72;100653.44;2567284;30;137643;-40
2021/09/09 04:14:39;;;;;;;11.48;6.32;;;14.10;99.90;;;12.76;94.09;100661.88;2569696;30;137369;-42
2021/09/09 04:17:07;;;;;;;9.07;6.10;;;14.10;99.90;;;12.74;94.10;100653.06;2568564;30;138714;-40
2021/09/09 04:19:35;;;;;;;10.30;6.88;;;14.10;99.90;;;12.73;94.06;100656.88;2570470;30;137253;-40
2021/09/09 04:22:06;;;;;;;9.52;6.18;;;14.10;99.90;;;12.69;94.13;100651.00;2569377;30;137548;-40
2021/09/09 04:24:35;;;;;;;10.23;6.10;;;14.10;99.90;;;12.61;93.71;100646.72;2568409;30;139353;-40
2021/09/09 04:27:04;;;;;;;9.63;6.30;;;14.00;99.90;;;12.61;93.83;100643.13;2569653;30;137537;-40
2021/09/09 04:29:32;;;;;;;9.00;6.57;;;14.00;99.90;;;12.59;93.42;100642.53;2569412;30;139403;-40
2021/09/09 04:32:00;;;;;;;10.00;6.38;;;14.00;99.90;;;12.56;93.49;100635.59;2569034;30;138115;-40
2021/09/09 04:34:27;;;;;;;9.95;6.75;;;13.90;99.90;;;12.52;93.24;100640.72;2569439;30;138422;-40
2021/09/09 04:36:55;;;;;;;11.13;7.10;;;13.90;99.90;;;12.50;93.59;100636.53;2568244;30;137405;-40
2021/09/09 04:39:22;;;;;;;10.18;6.70;;;13.90;99.90;;;12.47;94.08;100637.84;2567629;30;137423;-41
2021/09/09 04:41:50;;;;;;;10.30;6.55;;;13.80;99.90;;;12.46;94.27;100638.88;2568849;30;136601;-40
2021/09/09 04:44:17;;;;;;;11.20;6.40;;;13.80;99.90;;;12.45;94.16;100637.19;2565896;30;137899;-39
2021/09/09 04:46:45;;;;;;;9.63;6.20;;;13.80;99.90;;;12.43;94.16;100635.78;2569687;30;136874;-40
2021/09/09 04:49:13;;;;;;;11.18;6.78;;;13.80;99.90;;;12.43;94.35;100642.06;2566739;30;138637;-40
2021/09/09 04:51:40;;;;;;;9.90;6.00;;;13.80;99.90;;;12.42;93.97;100647.78;2569164;30;136816;-40
2021/09/09 04:54:08;;;;;;;9.75;6.68;;;13.80;99.90;;;12.41;94.37;100641.47;2569323;30;137464;-40
2021/09/09 04:56:36;;;;;;;9.98;6.50;;;13.80;99.90;;;12.41;94.58;100632.44;2568160;30;137123;-40
2021/09/09 04:59:03;;;;;;;12.13;6.90;;;13.80;99.90;;;12.31;94.54;100631.06;2568467;30;137739;-40
2021/09/09 05:01:31;;;;;;;10.90;7.10;;;13.80;99.90;;;12.36;94.51;100641.31;2569890;30;136952;-40
2021/09/09 05:03:59;;;;;;;10.75;6.70;;;13.70;99.90;;;12.35;94.69;100634.19;2569181;30;139186;-40
2021/09/09 05:06:27;;;;;;;10.98;6.95;;;13.70;99.90;;;12.34;94.87;100640.72;2569181;30;138087;-40
2021/09/09 05:08:55;;;;;;;10.90;7.05;;;13.70;99.90;;;12.34;94.71;100637.97;2569617;30;137493;-40
2021/09/09 05:11:22;;;;;;;;;;;13.70;99.90;;;12.34;95.07;100646.19;2568931;30;137745;-40
2021/09/09 05:13:49;;;;;;;10.00;6.90;;;13.70;99.90;;;12.31;94.79;100635.72;2568411;30;138613;-41
2021/09/09 05:16:17;;;;;;;10.63;7.10;;;13.70;99.90;;;12.31;94.86;100644.72;2569180;30;137621;-40
2021/09/09 05:18:45;;;;;;;9.48;7.22;;;13.70;99.90;;;12.34;95.33;100643.44;2570518;30;137212;-40
2021/09/09 05:21:12;;;;;;;11.80;7.38;;;13.70;99.90;;;12.35;95.28;100640.50;2567176;30;138241;-41
2021/09/09 05:23:40;;;;;;;11.38;7.25;;;13.70;99.90;;;12.40;95.46;100636.25;2568209;30;138047;-40
2021/09/09 05:26:07;;;;;;;11.40;7.68;;;13.70;99.90;;;12.44;95.87;100638.25;2566731;30;138437;-40
2021/09/09 05:28:35;;;;;;;11.68;7.90;;;13.70;99.90;;;12.48;95.61;100639.50;2568563;30;137795;-40
2021/09/09 05:31:02;;;;;;;10.88;7.72;;;13.80;99.90;;;12.55;95.76;100644.06;2570138;30;137616;-40
2021/09/09 05:33:30;;;;;;;10.60;6.93;;;13.80;99.90;;;12.60;95.61;100633.25;2567951;30;139094;-40
2021/09/09 05:35:57;;;;;;;13.20;7.40;;;13.90;99.90;;;12.64;95.42;100632.56;2568391;30;138343;-40
2021/09/09 05:38:25;;;;;;;12.00;7.50;;;13.90;99.90;;;12.73;95.35;100634.97;2571581;30;138229;-40
2021/09/09 05:40:53;;;;;;;;;;;14.00;99.90;;;12.83;95.18;100628.94;2566525;30;137847;-40
2021/09/09 05:43:20;;;;;;;11.15;7.28;;;14.10;99.90;;;12.91;94.86;100634.06;2568571;30;138178;-41
2021/09/09 05:45:48;;;;;;;12.75;7.60;;;14.20;99.90;;;13.00;94.69;100645.53;2567442;30;137409;-40
2021/09/09 05:48:16;;;;;;;11.13;7.55;;;14.20;99.90;;;13.09;94.65;100649.59;2571811;30;137324;-40
2021/09/09 05:50:43;;;;;;;12.98;7.45;;;14.30;99.90;;;13.21;94.35;100639.53;2567347;30;137029;-40
2021/09/09 05:53:11;;;;;;;14.95;7.95;;;14.40;99.90;;;13.35;94.17;100639.31;2568201;30;138596;-40
2021/09/09 05:55:39;;;;;;;13.88;8.07;;;14.50;99.90;;;13.50;92.86;100642.47;2569391;30;136851;-40
2021/09/09 05:58:06;;;;;;;13.15;7.88;;;14.70;99.90;;;13.64;92.05;100629.38;2567216;30;138260;-40
2021/09/09 06:00:34;;;;;;;;;;;14.80;99.90;;;13.75;91.66;100624.13;2566181;30;137715;-40
2021/09/09 06:03:03;;;;;;;11.52;7.60;;;14.90;99.90;;;13.85;91.59;100634.50;2568121;30;138140;-40
2021/09/09 06:05:35;;;;;;;10.98;7.45;;;15.00;99.90;;;13.92;91.80;100627.81;2569141;30;138290;-40
2021/09/09 06:08:04;;;;;;;11.45;7.60;;;15.10;99.90;;;13.99;92.09;100629.59;2568226;30;138550;-40
2021/09/09 06:10:32;;;;;;;12.13;7.60;;;15.10;99.90;;;14.08;92.20;100630.91;2569753;30;137349;-40
2021/09/09 06:13:00;;;;;;;13.57;8.80;;;15.20;99.90;;;14.20;92.50;100628.97;2568185;30;137801;-40
2021/09/09 06:15:27;;;;;;;11.90;7.47;;;15.30;99.90;;;14.24;92.03;100610.94;2568210;30;136485;-40
2021/09/09 06:17:55;;;;;;;12.18;7.60;;;15.40;99.90;;;14.47;91.76;100636.66;2566554;30;137664;-40
2021/09/09 06:20:22;;;;;;;12.98;7.60;;;15.60;99.90;;;14.58;89.63;100620.38;2570017;30;138315;-40
2021/09/09 06:22:50;;;;;;;12.23;7.90;;;15.70;99.90;;;14.79;89.03;100625.22;2569977;30;137310;-40
2021/09/09 06:25:18;;;;;;;11.77;7.95;;;15.90;99.90;;;14.96;88.49;100621.69;2568112;30;136910;-40
2021/09/09 06:27:46;;;;;;;13.98;8.30;;;16.00;99.90;;;15.14;85.96;100623.38;2568042;30;139331;-40
2021/09/09 06:30:13;;;;;;;13.80;8.43;;;16.20;99.90;;;15.32;86.38;100630.56;2567760;30;137650;-40
2021/09/09 06:32:41;;;;;;;;;;;16.40;99.90;;;15.46;85.57;100638.47;2569163;30;138715;-40
2021/09/09 06:35:09;;;;;;;12.02;8.00;;;16.50;99.90;;;15.59;85.26;100640.88;2568135;30;137012;-40
2021/09/09 06:37:38;;;;;;;15.27;9.18;;;16.60;99.90;;;15.69;84.51;100634.72;2567766;30;137398;-41
2021/09/09 06:40:08;;;;;;;12.52;8.15;;;16.70;99.90;;;15.82;84.23;100642.63;2568908;30;138659;-40
2021/09/09 06:42:36;;;;;;;12.13;8.07;;;16.80;99.90;;;15.95;84.77;100638.72;2567668;30;138543;-41
2021/09/09 06:45:04;;;;;;;13.65;8.07;;;16.90;99.90;;;16.05;83.73;100642.69;2569650;30;137002;-40
2021/09/09 06:47:32;;;;;;;13.93;8.30;;;17.00;99.90;;;16.16;82.36;100644.47;2568536;30;139404;-40
2021/09/09 06:50:00;;;;;;;12.38;7.13;;;17.10;99.90;;;16.31;82.91;100645.78;2567925;30;137223;-40
2021/09/09 06:52:27;;;;;;;12.98;7.57;;;17.30;99.90;;;16.45;81.01;100636.06;2576690;30;137923;-39
2021/09/09 06:54:55;;;;;;;11.38;7.45;;;17.40;99.90;;;16.64;79.37;100642.06;2567658;30;138491;-39
2021/09/09 06:57:22;;;;;;;11.00;7.00;;;17.60;99.90;;;16.82;79.43;100638.13;2566805;30;138330;-39
2021/09/09 06:59:50;;;;;;;13.65;7.13;;;17.80;99.90;;;17.00;78.49;100652.69;2567193;30;137146;-39
2021/09/09 07:02:18;;;;;;;12.15;7.18;;;17.90;99.90;;;17.19;77.13;100644.03;2567203;30;138257;-39
2021/09/09 07:04:45;;;;;;;15.60;7.53;;;18.10;99.90;;;17.33;75.24;100642.50;2566975;30;136864;-39
2021/09/09 07:07:13;;;;;;;11.45;7.28;;;18.20;99.90;;;17.50;75.68;100647.03;2566804;30;139295;-39
2021/09/09 07:09:41;;;;;;;11.93;6.45;;;18.40;99.90;;;17.64;74.72;100637.22;2568520;30;137314;-39
2021/09/09 07:12:08;;;;;;;11.27;6.63;;;18.50;99.90;;;17.82;74.83;100644.25;2566688;30;138349;-39
2021/09/09 07:14:36;;;;;;;12.05;7.28;;;18.70;99.90;;;17.96;74.57;100639.09;2568810;30;137786;-40
2021/09/09 07:17:03;;;;;;;9.50;6.55;;;18.80;99.90;;;18.11;72.59;100635.63;2569309;30;137392;-40
2021/09/09 07:19:31;;;;;;;;;;;18.90;99.90;;;18.26;70.86;100628.53;2566654;30;136957;-40
2021/09/09 07:21:59;;;;;;;9.93;6.45;;;19.10;99.90;;;18.39;71.10;100627.19;2568298;30;137165;-40
2021/09/09 07:24:26;;;;;;;10.70;7.03;;;19.20;99.90;;;18.49;69.85;100635.50;2567538;30;137637;-39
2021/09/09 07:26:54;;;;;;;13.00;6.28;;;19.30;99.90;;;18.62;70.35;100641.66;2567552;30;137511;-39
2021/09/09 07:29:21;;;;;;;8.77;6.45;;;19.40;99.90;;;18.67;68.68;100636.13;2568069;30;136848;-40
2021/09/09 07:31:49;;;;;;;11.40;6.90;;;19.50;99.90;;;18.78;69.55;100634.22;2567622;30;138225;-39
2021/09/09 07:34:17;;;;;;;13.68;7.03;;;19.60;99.90;;;18.91;69.62;100638.41;2566288;30;136851;-38
2021/09/09 07:36:45;;;;;;;11.23;6.28;;;19.70;99.90;;;19.00;67.76;100633.22;2568858;30;138255;-40
2021/09/09 07:39:12;;;;;;;10.35;6.85;;;19.80;99.90;;;19.17;67.59;100638.47;2567900;30;137601;-39
2021/09/09 07:41:40;;;;;;;;;;;19.90;99.90;;;19.24;68.69;100637.09;2569103;30;138188;-41
2021/09/09 07:44:07;;;;;;;9.95;6.97;;;20.00;99.90;;;19.36;68.94;100631.31;2569331;30;136836;-40
2021/09/09 07:46:35;;;;;;;10.00;6.28;;;20.10;99.90;;;19.45;67.51;100634.31;2567621;30;138432;-39
2021/09/09 07:49:04;;;;;;;11.48;6.68;;;20.20;99.90;;;19.60;67.62;100650.09;2567291;30;137510;-40
2021/09/09 07:51:32;;;;;;;10.77;6.28;;;20.40;99.90;;;19.73;66.80;100643.16;2567824;30;137235;-39
2021/09/09 07:54:00;;;;;;;;;;;20.50;99.90;;;19.84;68.24;100641.19;2569235;30;138367;-39
2021/09/09 07:56:27;;;;;;;10.60;6.65;;;20.60;99.90;;;19.95;65.15;100645.66;2567352;30;138557;-40
2021/09/09 07:58:55;;;;;;;10.70;6.32;;;20.70;99.90;;;20.07;65.02;100650.88;2568202;30;136885;-41
2021/09/09 08:01:22;;;;;;;13.55;6.63;;;20.80;99.90;;;20.20;67.03;100652.25;2567890;30;137847;-39
2021/09/09 08:03:50;;;;;;;;;;;21.00;99.90;;;20.28;65.76;100648.03;2568401;30;138183;-39
2021/09/09 08:06:18;;;;;;;9.70;6.32;;;21.10;99.90;;;20.31;65.03;100652.19;2567468;30;138629;-40
2021/09/09 08:08:46;;;;;;;8.95;6.60;;;21.10;99.90;;;20.36;64.85;100654.94;2568552;30;137721;-40
2021/09/09 08:11:13;;;;;;;;;;;21.10;99.90;;;20.51;66.43;100663.19;2568805;30;139108;-39
2021/09/09 08:13:41;;;;;;;12.63;6.70;;;21.20;99.90;;;20.61;65.08;100667.88;2568823;30;136827;-40
2021/09/09 08:16:08;;;;;;;11.45;7.13;;;21.30;99.90;;;20.79;63.79;100669.19;2566100;30;138063;-39
2021/09/09 08:18:36;;;;;;;11.15;6.75;;;21.50;99.90;;;20.94;62.89;100659.13;2570062;30;137436;-39
2021/09/09 08:21:03;;;;;;;12.27;6.70;;;21.60;99.90;;;21.06;63.70;100670.69;2568945;30;137497;-39
2021/09/09 08:23:32;;;;;;;13.18;6.70;;;21.70;99.90;;;21.18;63.18;100663.94;2568661;30;136983;-37
2021/09/09 08:26:00;;;;;;;11.98;6.70;;;21.80;99.90;;;21.34;62.99;100675.75;2567083;30;138470;-40
2021/09/09 08:28:27;;;;;;;8.80;6.18;;;21.90;99.90;;;21.37;63.46;100669.66;2569633;30;137549;-39
2021/09/09 08:30:55;;;;;;;12.15;6.35;;;22.10;99.90;;;21.49;62.07;100677.63;2567441;30;137379;-40
2021/09/09 08:33:22;;;;;;;;;;;22.20;99.90;;;21.53;62.41;100678.69;2567714;30;137017;-40
2021/09/09 08:35:50;;;;;;;8.07;5.93;;;22.20;99.90;;;21.63;62.12;100664.72;2567846;30;139192;-40
2021/09/09 08:38:17;;;;;;;;;;;22.30;99.90;;;21.64;61.33;100665.56;2568743;30;138441;-40
2021/09/09 08:40:51;;;;;;;11.27;6.72;;;22.30;99.90;;;21.70;62.69;100664.41;2567627;30;139507;-40
2021/09/09 08:43:19;;;;;;;11.35;6.72;;;22.40;99.90;;;21.86;62.92;100661.47;2567952;30;137706;-40
2021/09/09 08:45:53;;;;;;;10.55;6.55;;;22.50;99.90;;;21.94;60.82;100670.00;2567211;30;137510;-40
2021/09/09 08:48:22;;;;;;;12.80;6.75;;;22.60;99.90;;;21.98;60.35;100671.06;2568967;30;136860;-39
2021/09/09 08:50:49;;;;;;;12.25;6.55;;;22.70;99.90;;;22.05;60.60;100676.28;2569330;30;137402;-41
2021/09/09 08:53:19;;;;;;;9.65;6.88;;;22.80;99.90;;;22.16;61.18;100674.22;2566453;30;137111;-39
2021/09/09 08:55:50;;;;;;;13.52;7.53;;;22.80;99.90;;;22.30;60.27;100684.66;2567246;30;139755;-39
2021/09/09 08:58:21;;;;;;;9.43;6.05;;;22.90;99.90;;;22.40;61.51;100674.22;2570399;30;137581;-43
2021/09/09 09:01:15;;;;;;;10.35;6.22;;;23.00;99.90;;;22.49;59.92;100679.97;2568782;30;136726;-39
2021/09/09 09:04:11;;;;;;;10.27;6.18;;;23.20;99.90;;;22.55;60.46;100664.06;2568655;30;136930;-39
2021/09/09 09:06:38;;;;;;;9.10;5.70;;;23.20;99.90;;;22.69;59.11;100669.72;2568739;30;139076;-40
2021/09/09 09:09:10;;;;;;;9.43;6.38;;;23.30;99.90;;;22.76;58.79;100667.41;2566072;30;137420;-39
2021/09/09 09:11:49;;;;;;;11.00;6.53;;;23.40;99.90;;;22.67;58.76;100660.84;2568425;30;137055;-39
2021/09/09 09:14:22;;;;;;;10.50;6.82;;;23.40;99.90;;;22.83;57.74;100667.03;2567795;30;137105;-39
2021/09/09 09:17:00;;;;;;;9.80;6.80;;;23.50;99.90;;;22.91;58.69;100671.91;2568067;30;138602;-39
2021/09/09 09:19:32;;;;;;;9.93;6.60;;;23.60;99.90;;;22.93;58.67;100661.31;2567377;30;136817;-39
2021/09/09 09:22:14;;;;;;;8.63;5.95;;;23.60;99.90;;;23.15;59.51;100657.09;2567792;30;139045;-40
2021/09/09 09:24:48;;;;;;;9.73;6.35;;;23.80;99.90;;;23.24;59.28;100654.47;2567531;30;136815;-40
2021/09/09 09:27:19;;;;;;;9.05;6.05;;;23.90;99.90;;;23.41;59.58;100663.13;2566189;30;138883;-40
2021/09/09 09:30:09;;;;;;;9.77;5.97;;;24.00;99.90;;;23.55;58.14;100659.56;2567839;30;137025;-39
2021/09/09 09:32:47;;;;;;;9.50;6.25;;;24.20;99.90;;;23.51;57.64;100661.31;2565821;30;136859;-40
2021/09/09 09:35:21;;;;;;;10.32;6.07;;;24.20;99.90;;;23.65;56.98;100664.13;2569064;30;137505;-40
2021/09/09 09:37:55;;;;;;;7.70;5.50;;;24.30;99.90;;;23.78;56.99;100666.13;2568721;30;138530;-40
2021/09/09 09:40:31;;;;;;;10.02;6.20;;;24.40;99.90;;;23.92;56.88;100668.94;2568365;30;136956;-40
2021/09/09 09:43:08;;;;;;;12.20;6.50;;;24.50;99.90;;;24.04;57.19;100671.25;2569335;30;137148;-39
2021/09/09 09:45:48;;;;;;;9.50;5.90;;;24.60;99.90;;;24.16;58.16;100664.34;2568506;30;137192;-38
2021/09/09 09:48:29;;;;;;;11.18;6.30;;;24.70;99.90;;;24.08;53.67;100660.31;2569007;30;136841;-41
2021/09/09 09:50:56;;;;;;;12.55;6.72;;;24.80;99.90;;;24.15;54.55;100668.25;2567912;30;137662;-40
2021/09/09 09:53:25;;;;;;;10.57;6.72;;;24.80;99.90;;;24.19;56.38;100661.78;2568174;30;137828;-43
2021/09/09 09:55:52;;;;;;;10.55;6.45;;;24.90;99.90;;;24.19;56.93;100672.09;2567141;30;137347;-38
2021/09/09 09:58:20;;;;;;;11.95;7.10;;;24.80;99.90;;;24.25;55.89;100665.25;2567780;30;136847;-39
2021/09/09 10:00:47;;;;;;;11.40;6.88;;;24.90;99.90;;;24.34;55.85;100668.16;2568523;30;136791;-39
2021/09/09 10:03:16;;;;;;;10.20;6.30;;;25.00;99.90;;;24.45;56.39;100666.84;2568395;30;138232;-40
2021/09/09 10:05:45;;;;;;;11.30;6.35;;;25.00;99.90;;;24.46;54.95;100665.69;2566201;30;137296;-40
2021/09/09 10:08:12;;;;;;;9.80;6.10;;;25.10;99.90;;;24.63;56.47;100667.00;2568410;30;138174;-39
2021/09/09 10:10:40;;;;;;;;;;;;;;;24.77;57.58;100667.84;2567590;30;137240;-40